createdAt,value
2017-07-31T00:00:39.269Z,88.52
2017-07-31T00:03:07.141Z,88.06
2017-07-31T00:05:34.874Z,88.06
2017-07-31T00:08:02.669Z,88.31
2017-07-31T00:10:30.534Z,88.64
2017-07-31T00:12:58.220Z,89.25
2017-07-31T00:15:25.861Z,89.56
2017-07-31T00:17:53.530Z,89.93
2017-07-31T00:20:21.191Z,89.64
2017-07-31T00:22:48.850Z,89.69
2017-07-31T00:25:16.717Z,89.99
2017-07-31T00:27:44.549Z,90.30
2017-07-31T00:30:12.444Z,90.58
2017-07-31T00:32:40.484Z,89.12
2017-07-31T00:35:08.200Z,88.96
2017-07-31T00:37:35.840Z,89.04
2017-07-31T00:40:03.862Z,89.01
2017-07-31T00:42:31.578Z,89.00
2017-07-31T00:44:59.237Z,89.10
2017-07-31T00:47:27.106Z,88.97
2017-07-31T00:49:55.179Z,88.26
2017-07-31T00:52:22.850Z,87.12
2017-07-31T00:54:50.765Z,87.09
2017-07-31T00:57:18.356Z,87.17
2017-07-31T00:59:46.221Z,87.24
2017-07-31T01:02:14.016Z,87.15
2017-07-31T01:04:41.972Z,86.83
2017-07-31T01:07:09.822Z,87.32
2017-07-31T01:09:37.568Z,88.40
2017-07-31T01:12:05.551Z,88.67
2017-07-31T01:14:33.299Z,88.23
2017-07-31T01:17:01.097Z,88.36
2017-07-31T01:19:28.969Z,86.92
2017-07-31T01:21:56.801Z,87.41
2017-07-31T01:24:24.512Z,87.55
2017-07-31T01:26:52.104Z,87.53
2017-07-31T01:29:20.024Z,87.21
2017-07-31T01:31:47.900Z,86.79
2017-07-31T01:34:15.732Z,87.20
2017-07-31T01:36:43.478Z,86.80
2017-07-31T01:39:11.466Z,86.51
2017-07-31T01:41:39.135Z,86.46
2017-07-31T01:44:06.878Z,86.58
2017-07-31T01:46:34.689Z,87.33
2017-07-31T01:49:02.535Z,87.30
2017-07-31T01:51:30.523Z,87.25
2017-07-31T01:53:59.325Z,87.08
2017-07-31T01:56:26.975Z,86.44
2017-07-31T01:58:54.646Z,86.22
2017-07-31T02:01:22.508Z,86.18
2017-07-31T02:03:50.160Z,86.46
2017-07-31T02:06:17.875Z,86.29
2017-07-31T02:08:45.871Z,85.86
2017-07-31T02:11:13.615Z,85.70
2017-07-31T02:13:41.575Z,85.38
2017-07-31T02:16:09.281Z,85.21
2017-07-31T02:18:37.134Z,85.60
2017-07-31T02:21:05.000Z,86.17
2017-07-31T02:23:32.751Z,86.08
2017-07-31T02:26:00.467Z,86.94
2017-07-31T02:28:28.250Z,87.24
2017-07-31T02:30:56.085Z,88.44
2017-07-31T02:33:23.917Z,88.29
2017-07-31T02:35:51.611Z,89.13
2017-07-31T02:38:19.446Z,88.54
2017-07-31T02:40:47.041Z,88.83
2017-07-31T02:43:14.934Z,88.88
2017-07-31T02:45:42.874Z,89.27
2017-07-31T02:48:10.594Z,89.58
2017-07-31T02:50:38.559Z,89.69
2017-07-31T02:53:06.554Z,89.80
2017-07-31T02:55:34.396Z,89.13
2017-07-31T02:58:02.209Z,89.15
2017-07-31T03:00:30.278Z,89.39
2017-07-31T03:02:57.948Z,90.10
2017-07-31T03:05:25.609Z,90.36
2017-07-31T03:07:53.681Z,90.47
2017-07-31T03:10:21.514Z,90.08
2017-07-31T03:12:49.213Z,89.91
2017-07-31T03:15:17.126Z,89.38
2017-07-31T03:17:45.092Z,89.03
2017-07-31T03:20:13.018Z,88.54
2017-07-31T03:22:41.087Z,87.46
2017-07-31T03:25:08.795Z,87.25
2017-07-31T03:27:36.717Z,87.57
2017-07-31T03:30:04.689Z,88.06
2017-07-31T03:32:32.524Z,87.55
2017-07-31T03:35:00.243Z,87.02
2017-07-31T03:37:27.958Z,87.36
2017-07-31T03:39:55.700Z,87.63
2017-07-31T03:42:23.411Z,87.56
2017-07-31T03:44:51.432Z,87.01
2017-07-31T03:47:19.131Z,86.57
2017-07-31T03:49:47.017Z,86.60
2017-07-31T03:52:15.058Z,83.10
2017-07-31T03:54:43.000Z,73.18
2017-07-31T03:57:10.820Z,63.50
2017-07-31T03:59:38.733Z,56.92
2017-07-31T04:02:06.752Z,51.82
2017-07-31T04:04:34.468Z,49.04
2017-07-31T04:07:02.337Z,47.11
2017-07-31T04:09:30.158Z,46.08
2017-07-31T04:11:57.813Z,46.12
2017-07-31T04:14:25.883Z,45.18
2017-07-31T04:16:53.548Z,43.72
2017-07-31T04:19:21.412Z,41.46
2017-07-31T04:21:49.074Z,40.28
2017-07-31T04:24:16.928Z,38.29
2017-07-31T04:26:44.597Z,37.86
2017-07-31T04:29:12.674Z,37.44
2017-07-31T04:31:40.510Z,38.40
2017-07-31T04:34:08.324Z,37.97
2017-07-31T04:36:36.167Z,38.14
2017-07-31T04:39:04.058Z,38.78
2017-07-31T04:41:32.010Z,38.30
2017-07-31T04:43:59.792Z,38.68
2017-07-31T04:46:27.541Z,36.72
2017-07-31T04:48:55.253Z,36.11
2017-07-31T04:51:23.119Z,36.00
2017-07-31T04:53:50.939Z,33.80
2017-07-31T04:56:18.598Z,33.55
2017-07-31T04:58:46.596Z,33.78
2017-07-31T05:01:14.387Z,32.93
2017-07-31T05:03:42.254Z,31.28
2017-07-31T05:06:10.122Z,30.22
2017-07-31T05:08:37.990Z,29.81
2017-07-31T05:11:05.858Z,30.16
2017-07-31T05:13:33.871Z,30.36
2017-07-31T05:16:01.537Z,31.49
2017-07-31T05:18:29.209Z,31.68
2017-07-31T05:20:57.251Z,30.80
2017-07-31T05:23:25.022Z,30.54
2017-07-31T05:25:52.796Z,30.64
2017-07-31T05:28:20.470Z,30.91
2017-07-31T05:30:48.124Z,31.39
2017-07-31T05:33:15.958Z,31.13
2017-07-31T05:35:43.828Z,31.59
2017-07-31T05:38:11.691Z,30.24
2017-07-31T05:40:39.439Z,31.12
2017-07-31T05:43:07.306Z,30.06
2017-07-31T05:45:35.173Z,28.16
2017-07-31T05:48:03.090Z,28.82
2017-07-31T05:50:30.880Z,28.24
2017-07-31T05:52:58.922Z,27.75
2017-07-31T05:55:26.765Z,27.22
2017-07-31T05:57:54.863Z,26.33
2017-07-31T06:00:22.876Z,26.79
2017-07-31T06:02:50.604Z,24.75
2017-07-31T06:05:18.536Z,24.83
2017-07-31T06:07:46.532Z,24.79
2017-07-31T06:10:14.371Z,24.75
2017-07-31T06:12:42.266Z,23.58
2017-07-31T06:15:10.136Z,23.64
2017-07-31T06:17:37.798Z,23.22
2017-07-31T06:20:05.867Z,24.36
2017-07-31T06:22:33.736Z,23.68
2017-07-31T06:25:01.604Z,22.87
2017-07-31T06:27:29.617Z,22.70
2017-07-31T06:29:57.460Z,21.94
2017-07-31T06:32:25.414Z,21.74
2017-07-31T06:34:53.467Z,21.52
2017-07-31T06:37:21.163Z,22.67
2017-07-31T06:39:48.806Z,23.49
2017-07-31T06:42:16.721Z,23.46
2017-07-31T06:44:44.741Z,24.33
2017-07-31T06:47:12.603Z,24.18
2017-07-31T06:49:40.624Z,23.02
2017-07-31T06:52:08.341Z,23.51
2017-07-31T06:54:36.133Z,23.83
2017-07-31T06:57:03.965Z,23.61
2017-07-31T06:59:31.634Z,23.92
2017-07-31T07:01:59.300Z,24.09
2017-07-31T07:04:27.167Z,24.16
2017-07-31T07:06:54.895Z,23.65
2017-07-31T07:09:22.898Z,23.36
2017-07-31T07:11:50.753Z,23.52
2017-07-31T07:14:18.418Z,25.01
2017-07-31T07:16:46.264Z,24.97
2017-07-31T07:19:14.134Z,25.91
2017-07-31T07:21:41.823Z,24.36
2017-07-31T07:24:09.539Z,24.37
2017-07-31T07:26:37.411Z,24.37
2017-07-31T07:29:05.278Z,24.61
2017-07-31T07:31:33.194Z,23.55
2017-07-31T07:34:00.957Z,23.53
2017-07-31T07:36:28.623Z,24.24
2017-07-31T07:38:56.290Z,25.57
2017-07-31T07:41:24.315Z,23.15
2017-07-31T07:43:52.217Z,25.29
2017-07-31T07:46:19.879Z,25.16
2017-07-31T07:48:47.842Z,25.82
2017-07-31T07:51:15.782Z,26.55
2017-07-31T07:53:43.685Z,26.42
2017-07-31T07:56:11.756Z,27.07
2017-07-31T07:58:39.608Z,23.65
2017-07-31T08:01:07.355Z,23.23
2017-07-31T08:03:35.342Z,22.02
2017-07-31T08:06:03.213Z,20.09
2017-07-31T08:08:30.954Z,19.57
2017-07-31T08:10:58.958Z,21.86
2017-07-31T08:13:26.619Z,21.88
2017-07-31T08:15:54.286Z,21.88
2017-07-31T08:18:22.148Z,22.14
2017-07-31T08:20:50.014Z,21.54
2017-07-31T08:23:17.857Z,21.79
2017-07-31T08:25:45.652Z,23.04
2017-07-31T08:28:13.412Z,23.74
2017-07-31T08:30:41.261Z,23.62
2017-07-31T08:33:09.330Z,22.95
2017-07-31T08:35:37.071Z,24.38
2017-07-31T08:38:05.090Z,23.43
2017-07-31T08:40:33.157Z,24.99
2017-07-31T08:43:00.997Z,24.24
2017-07-31T08:45:28.683Z,24.07
2017-07-31T08:47:56.530Z,24.29
2017-07-31T08:50:24.397Z,23.40
2017-07-31T08:52:52.266Z,23.10
2017-07-31T08:55:20.087Z,23.58
2017-07-31T08:57:48.029Z,21.67
2017-07-31T09:00:15.868Z,21.32
2017-07-31T09:02:43.941Z,22.78
2017-07-31T09:05:11.681Z,22.69
2017-07-31T09:07:39.588Z,22.27
2017-07-31T09:10:07.921Z,22.23
2017-07-31T09:12:35.882Z,21.70
2017-07-31T09:15:03.704Z,21.53
2017-07-31T09:17:31.496Z,21.12
2017-07-31T09:19:59.184Z,19.79
2017-07-31T09:22:26.882Z,19.56
2017-07-31T09:24:54.942Z,18.66
2017-07-31T09:27:22.631Z,21.25
2017-07-31T09:29:50.671Z,19.66
2017-07-31T09:32:18.658Z,20.72
2017-07-31T09:34:46.543Z,22.77
2017-07-31T09:37:14.504Z,18.88
2017-07-31T09:39:42.547Z,19.63
2017-07-31T09:42:10.290Z,22.80
2017-07-31T09:44:38.258Z,21.11
2017-07-31T09:47:06.379Z,19.50
2017-07-31T09:49:34.169Z,19.94
2017-07-31T09:52:02.116Z,19.92
2017-07-31T09:54:29.867Z,20.83
2017-07-31T09:56:57.646Z,21.00
2017-07-31T09:59:25.511Z,20.82
2017-07-31T10:01:53.353Z,20.57
2017-07-31T10:04:21.033Z,21.81
2017-07-31T10:06:48.713Z,21.60
2017-07-31T10:09:16.706Z,21.32
2017-07-31T10:11:44.640Z,21.32
2017-07-31T10:14:12.491Z,22.20
2017-07-31T10:16:40.559Z,23.08
2017-07-31T10:19:08.351Z,24.39
2017-07-31T10:21:36.312Z,23.79
2017-07-31T10:24:04.154Z,24.15
2017-07-31T10:26:31.841Z,23.68
2017-07-31T10:28:59.695Z,24.16
2017-07-31T10:31:27.441Z,23.51
2017-07-31T10:33:55.050Z,23.25
2017-07-31T10:36:22.693Z,22.80
2017-07-31T10:38:50.360Z,23.52
2017-07-31T10:41:18.221Z,23.16
2017-07-31T10:43:46.074Z,22.23
2017-07-31T10:46:13.823Z,23.27
2017-07-31T10:48:41.787Z,23.94
2017-07-31T10:51:09.504Z,22.98
2017-07-31T10:53:37.540Z,23.49
2017-07-31T10:56:05.287Z,23.47
2017-07-31T10:58:33.254Z,22.72
2017-07-31T11:01:01.123Z,23.86
2017-07-31T11:03:28.832Z,23.76
2017-07-31T11:05:56.704Z,24.02
2017-07-31T11:08:24.700Z,25.10
2017-07-31T11:10:52.627Z,25.41
2017-07-31T11:13:20.494Z,24.33
2017-07-31T11:15:48.453Z,26.01
2017-07-31T11:18:16.434Z,26.02
2017-07-31T11:20:44.098Z,25.82
2017-07-31T11:23:12.165Z,26.04
2017-07-31T11:25:40.021Z,28.40
2017-07-31T11:28:07.860Z,28.45
2017-07-31T11:30:35.625Z,28.62
2017-07-31T11:33:03.637Z,30.22
2017-07-31T11:35:31.327Z,28.17
2017-07-31T11:37:59.309Z,28.72
2017-07-31T11:40:27.029Z,29.84
2017-07-31T11:42:54.867Z,28.16
2017-07-31T11:45:22.763Z,28.36
2017-07-31T11:47:50.478Z,28.56
2017-07-31T11:50:18.286Z,27.62
2017-07-31T11:52:46.159Z,27.41
2017-07-31T11:55:13.880Z,27.03
2017-07-31T11:57:41.893Z,26.59
2017-07-31T12:00:09.770Z,26.39
2017-07-31T12:02:37.627Z,25.58
2017-07-31T12:05:05.351Z,25.20
2017-07-31T12:07:33.339Z,26.56
2017-07-31T12:10:01.052Z,25.27
2017-07-31T12:12:29.051Z,26.98
2017-07-31T12:14:56.767Z,27.07
2017-07-31T12:17:24.427Z,26.47
2017-07-31T12:19:52.081Z,25.65
2017-07-31T12:22:19.955Z,25.64
2017-07-31T12:24:47.664Z,26.23
2017-07-31T12:27:15.485Z,25.82
2017-07-31T12:29:43.523Z,25.52
2017-07-31T12:32:11.387Z,27.19
2017-07-31T12:34:39.256Z,28.31
2017-07-31T12:37:07.000Z,27.33
2017-07-31T12:39:34.867Z,25.88
2017-07-31T12:42:02.491Z,27.01
2017-07-31T12:44:30.176Z,25.42
2017-07-31T12:46:57.796Z,26.45
2017-07-31T12:49:25.515Z,27.25
2017-07-31T12:51:53.327Z,27.81
2017-07-31T12:54:20.992Z,29.02
2017-07-31T12:56:48.837Z,30.56
2017-07-31T12:59:16.682Z,31.27
2017-07-31T13:01:44.571Z,31.85
2017-07-31T13:04:12.637Z,31.03
2017-07-31T13:06:40.734Z,32.02
2017-07-31T13:09:08.451Z,33.31
2017-07-31T13:11:36.254Z,33.71
2017-07-31T13:14:03.986Z,32.07
2017-07-31T13:16:31.791Z,32.02
2017-07-31T13:18:59.656Z,32.01
2017-07-31T13:21:27.319Z,32.53
2017-07-31T13:23:55.028Z,32.69
2017-07-31T13:26:22.647Z,32.86
2017-07-31T13:28:50.318Z,33.05
2017-07-31T13:31:18.154Z,34.25
2017-07-31T13:33:46.020Z,33.31
2017-07-31T13:36:13.886Z,33.28
2017-07-31T13:38:41.566Z,33.25
2017-07-31T13:41:09.296Z,32.95
2017-07-31T13:43:37.303Z,34.05
2017-07-31T13:46:05.006Z,32.98
2017-07-31T13:48:32.839Z,34.29
2017-07-31T13:51:00.668Z,34.97
2017-07-31T13:53:28.461Z,34.23
2017-07-31T13:55:56.431Z,34.26
2017-07-31T13:58:24.447Z,34.11
2017-07-31T14:00:52.287Z,35.08
2017-07-31T14:03:20.036Z,34.77
2017-07-31T14:05:48.103Z,35.66
2017-07-31T14:08:15.941Z,35.00
2017-07-31T14:10:43.808Z,35.37
2017-07-31T14:13:11.700Z,35.68
2017-07-31T14:15:39.358Z,36.11
2017-07-31T14:18:07.206Z,36.47
2017-07-31T14:20:35.075Z,37.45
2017-07-31T14:23:02.968Z,36.98
2017-07-31T14:25:30.633Z,36.39
2017-07-31T14:27:58.553Z,37.40
2017-07-31T14:30:26.152Z,37.36
2017-07-31T14:32:54.009Z,36.47
2017-07-31T14:35:21.950Z,36.69
2017-07-31T14:37:49.764Z,36.88
2017-07-31T14:40:17.417Z,37.15
2017-07-31T14:42:45.492Z,36.85
2017-07-31T14:45:13.221Z,38.06
2017-07-31T14:47:41.064Z,37.92
2017-07-31T14:50:09.093Z,37.89
2017-07-31T14:52:36.926Z,38.38
2017-07-31T14:55:04.667Z,37.84
2017-07-31T14:57:32.721Z,38.42
2017-07-31T15:00:00.544Z,38.57
2017-07-31T15:02:28.397Z,39.02
2017-07-31T15:04:56.231Z,38.00
2017-07-31T15:07:24.145Z,38.36
2017-07-31T15:09:51.730Z,38.04
2017-07-31T15:12:19.589Z,38.24
2017-07-31T15:14:47.404Z,38.98
2017-07-31T15:17:15.213Z,39.11
2017-07-31T15:19:43.267Z,37.77
2017-07-31T15:22:10.950Z,38.67
2017-07-31T15:24:38.674Z,38.16
2017-07-31T15:27:06.663Z,38.58
2017-07-31T15:29:34.257Z,39.23
2017-07-31T15:32:02.213Z,39.34
2017-07-31T15:34:30.269Z,40.87
2017-07-31T15:36:57.867Z,39.91
2017-07-31T15:39:25.614Z,38.26
2017-07-31T15:41:53.270Z,39.72
2017-07-31T15:44:20.860Z,40.04
2017-07-31T15:46:48.589Z,40.64
2017-07-31T15:49:16.283Z,40.00
2017-07-31T15:51:43.989Z,41.08
2017-07-31T15:54:11.992Z,40.91
2017-07-31T15:56:39.840Z,39.46
2017-07-31T15:59:07.713Z,40.86
2017-07-31T16:01:35.621Z,40.99
2017-07-31T16:04:03.461Z,41.38
2017-07-31T16:06:31.242Z,40.39
2017-07-31T16:08:59.360Z,41.46
2017-07-31T16:11:27.271Z,41.17
2017-07-31T16:13:54.932Z,42.34
2017-07-31T16:16:22.603Z,41.58
2017-07-31T16:18:50.254Z,42.31
2017-07-31T16:21:17.921Z,42.20
2017-07-31T16:23:45.956Z,42.35
2017-07-31T16:26:13.828Z,42.55
2017-07-31T16:28:41.694Z,42.69
2017-07-31T16:31:09.791Z,43.32
2017-07-31T16:33:37.457Z,43.65
2017-07-31T16:36:05.175Z,43.97
2017-07-31T16:38:38.918Z,44.54
2017-07-31T16:41:06.633Z,43.81
2017-07-31T16:43:46.137Z,44.38
2017-07-31T16:46:23.772Z,46.51
2017-07-31T16:49:03.360Z,45.00
2017-07-31T16:51:30.957Z,45.66
2017-07-31T16:53:58.792Z,49.63
2017-07-31T16:56:26.560Z,50.24
2017-07-31T16:58:54.402Z,52.30
2017-07-31T17:01:22.083Z,54.57
2017-07-31T17:03:50.134Z,54.93
2017-07-31T17:06:17.815Z,54.93
2017-07-31T17:08:45.669Z,56.33
2017-07-31T17:11:13.757Z,58.02
2017-07-31T17:13:41.426Z,59.37
2017-07-31T17:16:09.074Z,59.27
2017-07-31T17:18:36.951Z,59.71
2017-07-31T17:21:04.778Z,61.92
2017-07-31T17:23:32.596Z,63.56
2017-07-31T17:26:00.340Z,62.79
2017-07-31T17:28:28.001Z,62.98
2017-07-31T17:30:55.617Z,63.80
2017-07-31T17:33:23.432Z,63.16
2017-07-31T17:35:51.157Z,64.49
2017-07-31T17:38:18.761Z,65.58
2017-07-31T17:40:46.827Z,67.70
2017-07-31T17:43:14.536Z,68.65
2017-07-31T17:45:42.557Z,69.50
2017-07-31T17:48:10.454Z,68.73
2017-07-31T17:50:38.088Z,69.15
2017-07-31T17:53:06.007Z,70.54
2017-07-31T17:55:33.718Z,72.81
2017-07-31T17:58:01.486Z,71.33
2017-07-31T18:00:29.343Z,73.56
2017-07-31T18:02:57.197Z,73.93
2017-07-31T18:05:24.785Z,74.23
2017-07-31T18:07:52.753Z,75.61
2017-07-31T18:10:20.419Z,76.54
2017-07-31T18:12:48.279Z,76.25
2017-07-31T18:15:16.143Z,75.92
2017-07-31T18:17:43.978Z,72.79
2017-07-31T18:20:11.791Z,76.76
2017-07-31T18:22:39.541Z,74.43
2017-07-31T18:25:07.411Z,76.03
2017-07-31T18:27:35.273Z,77.06
2017-07-31T18:30:03.344Z,77.61
2017-07-31T18:32:31.327Z,79.43
2017-07-31T18:34:59.497Z,80.07
2017-07-31T18:37:27.950Z,80.22
2017-07-31T18:39:55.609Z,80.06
2017-07-31T18:42:23.373Z,79.99
2017-07-31T18:44:51.360Z,80.99
2017-07-31T18:47:19.031Z,81.29
2017-07-31T18:49:46.706Z,81.12
2017-07-31T18:52:14.560Z,80.54
2017-07-31T18:54:42.776Z,79.75
2017-07-31T18:57:10.876Z,79.74
2017-07-31T18:59:38.993Z,80.61
2017-07-31T19:02:06.953Z,80.57
2017-07-31T19:04:34.926Z,80.34
2017-07-31T19:07:02.871Z,80.33
2017-07-31T19:09:31.071Z,80.11
2017-07-31T19:11:59.038Z,80.73
2017-07-31T19:14:27.117Z,82.55
2017-07-31T19:16:55.394Z,82.05
2017-07-31T19:19:23.835Z,81.37
2017-07-31T19:21:51.941Z,82.04
2017-07-31T19:24:20.292Z,81.64
2017-07-31T19:26:48.424Z,81.16
2017-07-31T19:29:16.526Z,81.65
2017-07-31T19:31:44.656Z,81.88
2017-07-31T19:34:12.942Z,81.90
2017-07-31T19:36:40.827Z,82.40
2017-07-31T19:39:08.894Z,82.81
2017-07-31T19:41:37.039Z,82.95
2017-07-31T19:44:05.111Z,82.83
2017-07-31T19:46:32.868Z,83.37
2017-07-31T19:49:01.100Z,83.78
2017-07-31T19:51:29.429Z,83.13
2017-07-31T19:53:57.381Z,83.64
2017-07-31T19:56:25.215Z,83.95
2017-07-31T19:58:52.996Z,84.66
2017-07-31T20:01:21.162Z,83.85
2017-07-31T20:03:48.947Z,84.79
2017-07-31T20:06:16.845Z,84.64
2017-07-31T20:08:44.895Z,84.92
2017-07-31T20:11:12.844Z,85.41
2017-07-31T20:13:40.655Z,85.70
2017-07-31T20:16:08.574Z,85.08
2017-07-31T20:18:36.563Z,85.92
2017-07-31T20:21:04.493Z,85.79
2017-07-31T20:23:32.495Z,85.73
2017-07-31T20:26:00.217Z,85.77
2017-07-31T20:28:28.037Z,84.68
2017-07-31T20:30:55.650Z,84.80
2017-07-31T20:33:23.555Z,84.54
2017-07-31T20:35:51.608Z,85.02
2017-07-31T20:38:19.490Z,85.09
2017-07-31T20:40:47.098Z,84.94
2017-07-31T20:43:15.115Z,83.86
2017-07-31T20:45:43.086Z,82.90
2017-07-31T20:48:11.193Z,83.82
2017-07-31T20:50:39.410Z,82.84
2017-07-31T20:53:07.103Z,83.05
2017-07-31T20:55:34.815Z,83.42
2017-07-31T20:58:02.785Z,82.52
2017-07-31T21:00:30.499Z,82.27
2017-07-31T21:02:58.162Z,82.25
2017-07-31T21:05:26.222Z,82.12
2017-07-31T21:07:54.318Z,82.55
2017-07-31T21:10:22.350Z,82.38
2017-07-31T21:12:50.697Z,82.71
2017-07-31T21:15:18.554Z,82.91
2017-07-31T21:17:46.584Z,82.83
2017-07-31T21:20:14.291Z,83.17
2017-07-31T21:22:41.935Z,83.38
2017-07-31T21:25:09.532Z,83.97
2017-07-31T21:27:37.240Z,83.89
2017-07-31T21:30:04.837Z,84.07
2017-07-31T21:32:32.567Z,84.15
2017-07-31T21:35:00.432Z,84.29
2017-07-31T21:37:28.088Z,84.46
2017-07-31T21:39:55.701Z,84.37
2017-07-31T21:42:23.401Z,84.28
2017-07-31T21:44:51.086Z,83.62
2017-07-31T21:47:18.919Z,84.09
2017-07-31T21:49:46.788Z,83.11
2017-07-31T21:52:14.479Z,83.01
2017-07-31T21:54:42.109Z,82.60
2017-07-31T21:57:09.778Z,83.35
2017-07-31T21:59:37.406Z,83.20
2017-07-31T22:02:05.025Z,84.01
2017-07-31T22:04:32.711Z,83.96
2017-07-31T22:07:00.345Z,83.84
2017-07-31T22:09:28.245Z,84.52
2017-07-31T22:11:55.963Z,84.87
2017-07-31T22:14:23.689Z,84.94
2017-07-31T22:16:57.145Z,85.38
2017-07-31T22:19:25.072Z,85.64
2017-07-31T22:21:58.291Z,85.84
2017-07-31T22:24:26.379Z,86.22
2017-07-31T22:26:54.132Z,86.40
2017-07-31T22:29:21.790Z,86.29
2017-07-31T22:31:49.633Z,86.21
2017-07-31T22:34:17.373Z,85.95
2017-07-31T22:36:45.367Z,86.98
2017-07-31T22:39:13.056Z,87.12
2017-07-31T22:41:40.898Z,86.60
2017-07-31T22:44:08.554Z,87.09
2017-07-31T22:46:36.241Z,87.28
2017-07-31T22:49:03.914Z,87.37
2017-07-31T22:51:31.917Z,86.73
2017-07-31T22:53:59.852Z,87.10
2017-07-31T22:56:27.571Z,87.85
2017-07-31T22:58:55.563Z,87.14
2017-07-31T23:01:23.242Z,86.86
2017-07-31T23:03:50.918Z,87.16
2017-07-31T23:06:18.554Z,87.05
2017-07-31T23:08:46.153Z,88.02
2017-07-31T23:11:13.780Z,87.91
2017-07-31T23:13:41.443Z,88.30
2017-07-31T23:16:09.058Z,88.04
2017-07-31T23:18:36.680Z,88.44
2017-07-31T23:21:04.472Z,88.66
2017-07-31T23:23:32.084Z,88.52
2017-07-31T23:25:59.728Z,88.61
2017-07-31T23:28:27.406Z,88.95
2017-07-31T23:30:55.010Z,88.85
2017-07-31T23:33:22.669Z,89.70
2017-07-31T23:35:50.360Z,89.67
2017-07-31T23:38:17.980Z,89.59
2017-07-31T23:40:45.613Z,89.31
2017-07-31T23:43:13.299Z,89.72
2017-07-31T23:45:40.923Z,89.57
2017-07-31T23:48:08.681Z,90.17
2017-07-31T23:50:36.669Z,89.72
2017-07-31T23:53:04.475Z,89.26
2017-07-31T23:55:32.117Z,89.16
2017-07-31T23:57:59.797Z,89.18
